sensor_id;sensor_type;location;lat;lon;timestamp;temperature;humidity
57242;DHT22;43095;53.302;5.786;2022-10-16T00:01:38;13.30;99.90
57242;DHT22;43095;53.302;5.786;2022-10-16T00:04:05;13.30;99.90
57242;DHT22;43095;53.302;5.786;2022-10-16T00:06:38;13.30;99.90
57242;DHT22;43095;53.302;5.786;2022-10-16T00:09:06;13.30;99.90
57242;DHT22;43095;53.302;5.786;2022-10-16T00:11:35;13.30;99.90
57242;DHT22;43095;53.302;5.786;2022-10-16T00:14:14;13.30;99.90
57242;DHT22;43095;53.302;5.786;2022-10-16T00:16:42;13.30;99.90
57242;DHT22;43095;53.302;5.786;2022-10-16T00:19:11;13.20;99.90
57242;DHT22;43095;53.302;5.786;2022-10-16T00:21:41;13.20;99.90
57242;DHT22;43095;53.302;5.786;2022-10-16T00:24:30;13.30;99.90
57242;DHT22;43095;53.302;5.786;2022-10-16T00:26:58;13.30;99.90
57242;DHT22;43095;53.302;5.786;2022-10-16T00:29:25;13.30;99.90
57242;DHT22;43095;53.302;5.786;2022-10-16T00:31:52;13.30;99.90
57242;DHT22;43095;53.302;5.786;2022-10-16T00:34:20;13.30;99.90
57242;DHT22;43095;53.302;5.786;2022-10-16T00:36:49;13.30;99.90
57242;DHT22;43095;53.302;5.786;2022-10-16T00:39:16;13.30;99.90
57242;DHT22;43095;53.302;5.786;2022-10-16T00:41:43;13.30;99.90
57242;DHT22;43095;53.302;5.786;2022-10-16T00:44:43;13.30;99.90
57242;DHT22;43095;53.302;5.786;2022-10-16T00:47:31;13.30;99.90
57242;DHT22;43095;53.302;5.786;2022-10-16T00:50:09;13.20;99.90
57242;DHT22;43095;53.302;5.786;2022-10-16T00:52:40;13.20;99.90
57242;DHT22;43095;53.302;5.786;2022-10-16T00:55:09;13.20;99.90
57242;DHT22;43095;53.302;5.786;2022-10-16T00:57:37;13.20;99.90
57242;DHT22;43095;53.302;5.786;2022-10-16T01:00:09;13.20;99.90
57242;DHT22;43095;53.302;5.786;2022-10-16T01:02:37;13.20;99.90
57242;DHT22;43095;53.302;5.786;2022-10-16T01:05:07;13.20;99.90
57242;DHT22;43095;53.302;5.786;2022-10-16T01:08:12;13.20;99.90
57242;DHT22;43095;53.302;5.786;2022-10-16T01:10:52;13.20;99.90
57242;DHT22;43095;53.302;5.786;2022-10-16T01:13:26;13.20;99.90
57242;DHT22;43095;53.302;5.786;2022-10-16T01:19:07;13.10;99.90
57242;DHT22;43095;53.302;5.786;2022-10-16T01:21:39;13.30;99.90
57242;DHT22;43095;53.302;5.786;2022-10-16T01:27:05;13.40;99.90
57242;DHT22;43095;53.302;5.786;2022-10-16T01:30:04;13.40;99.90
57242;DHT22;43095;53.302;5.786;2022-10-16T01:35:11;13.50;99.90
57242;DHT22;43095;53.302;5.786;2022-10-16T01:37:53;13.50;99.90
57242;DHT22;43095;53.302;5.786;2022-10-16T01:40:25;13.50;99.90
57242;DHT22;43095;53.302;5.786;2022-10-16T01:42:59;13.60;99.90
57242;DHT22;43095;53.302;5.786;2022-10-16T01:45:29;13.60;99.90
57242;DHT22;43095;53.302;5.786;2022-10-16T01:48:00;13.60;99.90
57242;DHT22;43095;53.302;5.786;2022-10-16T01:50:36;13.60;99.90
57242;DHT22;43095;53.302;5.786;2022-10-16T01:53:05;13.60;99.90
57242;DHT22;43095;53.302;5.786;2022-10-16T01:55:36;13.70;99.90
57242;DHT22;43095;53.302;5.786;2022-10-16T01:58:08;13.70;99.90
57242;DHT22;43095;53.302;5.786;2022-10-16T02:00:38;13.70;99.90
57242;DHT22;43095;53.302;5.786;2022-10-16T02:03:11;13.70;99.90
57242;DHT22;43095;53.302;5.786;2022-10-16T02:05:47;13.70;99.90
57242;DHT22;43095;53.302;5.786;2022-10-16T02:08:16;13.70;99.90
57242;DHT22;43095;53.302;5.786;2022-10-16T02:10:43;13.70;99.90
57242;DHT22;43095;53.302;5.786;2022-10-16T02:13:22;13.60;99.90
57242;DHT22;43095;53.302;5.786;2022-10-16T02:15:51;13.50;99.90
57242;DHT22;43095;53.302;5.786;2022-10-16T02:18:21;13.50;99.90
57242;DHT22;43095;53.302;5.786;2022-10-16T02:20:59;13.40;99.90
57242;DHT22;43095;53.302;5.786;2022-10-16T02:24:20;13.40;99.90
57242;DHT22;43095;53.302;5.786;2022-10-16T02:26:35;13.30;99.90
57242;DHT22;43095;53.302;5.786;2022-10-16T02:29:12;13.20;99.90
57242;DHT22;43095;53.302;5.786;2022-10-16T02:31:45;13.20;99.90
57242;DHT22;43095;53.302;5.786;2022-10-16T02:34:16;13.20;99.90
57242;DHT22;43095;53.302;5.786;2022-10-16T02:36:46;13.10;99.90
57242;DHT22;43095;53.302;5.786;2022-10-16T02:39:16;13.00;99.90
57242;DHT22;43095;53.302;5.786;2022-10-16T02:41:45;12.90;99.90
57242;DHT22;43095;53.302;5.786;2022-10-16T02:44:13;13.00;99.90
57242;DHT22;43095;53.302;5.786;2022-10-16T02:46:40;13.00;99.90
57242;DHT22;43095;53.302;5.786;2022-10-16T02:49:09;12.90;99.90
57242;DHT22;43095;53.302;5.786;2022-10-16T02:51:36;12.90;99.90
57242;DHT22;43095;53.302;5.786;2022-10-16T02:54:04;12.90;99.90
57242;DHT22;43095;53.302;5.786;2022-10-16T02:56:32;12.90;99.90
57242;DHT22;43095;53.302;5.786;2022-10-16T02:58:59;13.00;99.90
57242;DHT22;43095;53.302;5.786;2022-10-16T03:01:27;13.00;99.90
57242;DHT22;43095;53.302;5.786;2022-10-16T03:03:54;13.00;99.90
57242;DHT22;43095;53.302;5.786;2022-10-16T03:06:23;13.10;99.90
57242;DHT22;43095;53.302;5.786;2022-10-16T03:08:50;13.00;99.90
57242;DHT22;43095;53.302;5.786;2022-10-16T03:11:18;13.00;99.90
57242;DHT22;43095;53.302;5.786;2022-10-16T03:13:45;13.00;99.90
57242;DHT22;43095;53.302;5.786;2022-10-16T03:16:12;12.90;99.90
57242;DHT22;43095;53.302;5.786;2022-10-16T03:18:41;12.90;99.90
57242;DHT22;43095;53.302;5.786;2022-10-16T03:21:09;12.80;99.90
57242;DHT22;43095;53.302;5.786;2022-10-16T03:23:36;12.90;99.90
57242;DHT22;43095;53.302;5.786;2022-10-16T03:26:04;12.90;99.90
57242;DHT22;43095;53.302;5.786;2022-10-16T03:28:31;12.90;99.90
57242;DHT22;43095;53.302;5.786;2022-10-16T03:30:59;12.80;99.90
57242;DHT22;43095;53.302;5.786;2022-10-16T03:33:27;12.80;99.90
57242;DHT22;43095;53.302;5.786;2022-10-16T03:35:55;12.80;99.90
57242;DHT22;43095;53.302;5.786;2022-10-16T03:38:22;12.80;99.90
57242;DHT22;43095;53.302;5.786;2022-10-16T03:40:50;12.80;99.90
57242;DHT22;43095;53.302;5.786;2022-10-16T03:43:17;12.80;99.90
57242;DHT22;43095;53.302;5.786;2022-10-16T03:45:45;12.70;99.90
57242;DHT22;43095;53.302;5.786;2022-10-16T03:48:12;12.60;99.90
57242;DHT22;43095;53.302;5.786;2022-10-16T03:50:43;12.70;99.90
57242;DHT22;43095;53.302;5.786;2022-10-16T03:53:10;12.70;99.90
57242;DHT22;43095;53.302;5.786;2022-10-16T03:55:37;12.70;99.90
57242;DHT22;43095;53.302;5.786;2022-10-16T03:58:05;12.70;99.90
57242;DHT22;43095;53.302;5.786;2022-10-16T04:00:32;12.70;99.90
57242;DHT22;43095;53.302;5.786;2022-10-16T04:02:59;12.70;99.90
57242;DHT22;43095;53.302;5.786;2022-10-16T04:05:27;12.70;99.90
57242;DHT22;43095;53.302;5.786;2022-10-16T04:07:58;12.80;99.90
57242;DHT22;43095;53.302;5.786;2022-10-16T04:10:27;12.80;99.90
57242;DHT22;43095;53.302;5.786;2022-10-16T04:12:56;12.80;99.90
57242;DHT22;43095;53.302;5.786;2022-10-16T04:15:25;12.90;99.90
57242;DHT22;43095;53.302;5.786;2022-10-16T04:17:53;12.90;99.90
57242;DHT22;43095;53.302;5.786;2022-10-16T04:20:21;12.90;99.90
57242;DHT22;43095;53.302;5.786;2022-10-16T04:22:48;12.90;99.90
57242;DHT22;43095;53.302;5.786;2022-10-16T04:25:16;13.00;99.90
57242;DHT22;43095;53.302;5.786;2022-10-16T04:27:43;13.00;99.90
57242;DHT22;43095;53.302;5.786;2022-10-16T04:30:12;13.00;99.90
57242;DHT22;43095;53.302;5.786;2022-10-16T04:32:40;13.10;99.90
57242;DHT22;43095;53.302;5.786;2022-10-16T04:35:08;13.10;99.90
57242;DHT22;43095;53.302;5.786;2022-10-16T04:37:35;13.10;99.90
57242;DHT22;43095;53.302;5.786;2022-10-16T04:40:03;13.20;99.90
57242;DHT22;43095;53.302;5.786;2022-10-16T04:42:30;13.20;99.90
57242;DHT22;43095;53.302;5.786;2022-10-16T04:44:58;13.20;99.90
57242;DHT22;43095;53.302;5.786;2022-10-16T04:47:25;13.20;99.90
57242;DHT22;43095;53.302;5.786;2022-10-16T04:49:53;13.20;99.90
57242;DHT22;43095;53.302;5.786;2022-10-16T04:52:20;13.20;99.90
57242;DHT22;43095;53.302;5.786;2022-10-16T04:54:51;13.10;99.90
57242;DHT22;43095;53.302;5.786;2022-10-16T04:57:18;13.10;99.90
57242;DHT22;43095;53.302;5.786;2022-10-16T04:59:46;13.10;99.90
57242;DHT22;43095;53.302;5.786;2022-10-16T05:02:14;13.10;99.90
57242;DHT22;43095;53.302;5.786;2022-10-16T05:04:41;13.00;99.90
57242;DHT22;43095;53.302;5.786;2022-10-16T05:07:09;13.00;99.90
57242;DHT22;43095;53.302;5.786;2022-10-16T05:09:36;13.00;99.90
57242;DHT22;43095;53.302;5.786;2022-10-16T05:12:04;13.10;99.90
57242;DHT22;43095;53.302;5.786;2022-10-16T05:14:31;13.10;99.90
57242;DHT22;43095;53.302;5.786;2022-10-16T05:17:00;13.10;99.90
57242;DHT22;43095;53.302;5.786;2022-10-16T05:19:36;13.10;99.90
57242;DHT22;43095;53.302;5.786;2022-10-16T05:22:04;13.00;99.90
57242;DHT22;43095;53.302;5.786;2022-10-16T05:24:31;13.00;99.90
57242;DHT22;43095;53.302;5.786;2022-10-16T05:27:01;13.00;99.90
57242;DHT22;43095;53.302;5.786;2022-10-16T05:29:28;12.90;99.90
57242;DHT22;43095;53.302;5.786;2022-10-16T05:31:56;12.90;99.90
57242;DHT22;43095;53.302;5.786;2022-10-16T05:34:23;12.90;99.90
57242;DHT22;43095;53.302;5.786;2022-10-16T05:36:51;12.90;99.90
57242;DHT22;43095;53.302;5.786;2022-10-16T05:39:18;12.80;99.90
57242;DHT22;43095;53.302;5.786;2022-10-16T05:41:45;12.80;99.90
57242;DHT22;43095;53.302;5.786;2022-10-16T05:44:13;12.80;99.90
57242;DHT22;43095;53.302;5.786;2022-10-16T05:46:40;12.80;99.90
57242;DHT22;43095;53.302;5.786;2022-10-16T05:49:08;12.80;99.90
57242;DHT22;43095;53.302;5.786;2022-10-16T05:51:37;12.80;99.90
57242;DHT22;43095;53.302;5.786;2022-10-16T05:54:05;12.80;99.90
57242;DHT22;43095;53.302;5.786;2022-10-16T05:56:32;12.80;99.90
57242;DHT22;43095;53.302;5.786;2022-10-16T05:59:00;12.80;99.90
57242;DHT22;43095;53.302;5.786;2022-10-16T06:01:27;12.70;99.90
57242;DHT22;43095;53.302;5.786;2022-10-16T06:03:54;12.70;99.90
57242;DHT22;43095;53.302;5.786;2022-10-16T06:06:24;12.70;99.90
57242;DHT22;43095;53.302;5.786;2022-10-16T06:08:54;12.70;99.90
57242;DHT22;43095;53.302;5.786;2022-10-16T06:11:27;12.70;99.90
57242;DHT22;43095;53.302;5.786;2022-10-16T06:13:56;12.70;99.90
57242;DHT22;43095;53.302;5.786;2022-10-16T06:16:25;12.70;99.90
57242;DHT22;43095;53.302;5.786;2022-10-16T06:18:54;12.70;99.90
57242;DHT22;43095;53.302;5.786;2022-10-16T06:21:24;12.70;99.90
57242;DHT22;43095;53.302;5.786;2022-10-16T06:23:53;12.70;99.90
57242;DHT22;43095;53.302;5.786;2022-10-16T06:26:23;12.70;99.90
57242;DHT22;43095;53.302;5.786;2022-10-16T06:28:50;12.70;99.90
57242;DHT22;43095;53.302;5.786;2022-10-16T06:31:17;12.70;99.90
57242;DHT22;43095;53.302;5.786;2022-10-16T06:33:45;12.70;99.90
57242;DHT22;43095;53.302;5.786;2022-10-16T06:36:15;12.70;99.90
57242;DHT22;43095;53.302;5.786;2022-10-16T06:38:44;12.80;99.90
57242;DHT22;43095;53.302;5.786;2022-10-16T06:41:14;12.70;99.90
57242;DHT22;43095;53.302;5.786;2022-10-16T06:43:48;12.80;99.90
57242;DHT22;43095;53.302;5.786;2022-10-16T06:46:18;12.80;99.90
57242;DHT22;43095;53.302;5.786;2022-10-16T06:48:45;12.80;99.90
57242;DHT22;43095;53.302;5.786;2022-10-16T06:51:24;12.80;99.90
57242;DHT22;43095;53.302;5.786;2022-10-16T06:53:54;12.90;99.90
57242;DHT22;43095;53.302;5.786;2022-10-16T06:56:31;12.90;99.90
57242;DHT22;43095;53.302;5.786;2022-10-16T06:58:59;12.90;99.90
57242;DHT22;43095;53.302;5.786;2022-10-16T07:01:27;13.00;99.90
57242;DHT22;43095;53.302;5.786;2022-10-16T07:03:55;13.00;99.90
57242;DHT22;43095;53.302;5.786;2022-10-16T07:06:24;13.10;99.90
57242;DHT22;43095;53.302;5.786;2022-10-16T07:08:52;13.20;99.90
57242;DHT22;43095;53.302;5.786;2022-10-16T07:11:22;13.20;99.90
57242;DHT22;43095;53.302;5.786;2022-10-16T07:13:54;13.20;99.90
57242;DHT22;43095;53.302;5.786;2022-10-16T07:16:25;13.20;99.90
57242;DHT22;43095;53.302;5.786;2022-10-16T07:18:54;13.20;99.90
57242;DHT22;43095;53.302;5.786;2022-10-16T07:21:31;13.30;99.90
57242;DHT22;43095;53.302;5.786;2022-10-16T07:24:04;13.40;99.90
57242;DHT22;43095;53.302;5.786;2022-10-16T07:26:36;13.30;99.90
57242;DHT22;43095;53.302;5.786;2022-10-16T07:29:12;13.30;99.90
57242;DHT22;43095;53.302;5.786;2022-10-16T07:31:40;13.30;99.90
57242;DHT22;43095;53.302;5.786;2022-10-16T07:34:09;13.40;99.90
57242;DHT22;43095;53.302;5.786;2022-10-16T07:36:37;13.40;99.90
57242;DHT22;43095;53.302;5.786;2022-10-16T07:39:04;13.40;99.90
57242;DHT22;43095;53.302;5.786;2022-10-16T07:41:34;13.40;99.90
57242;DHT22;43095;53.302;5.786;2022-10-16T07:44:06;13.40;99.90
57242;DHT22;43095;53.302;5.786;2022-10-16T07:46:33;13.50;99.90
57242;DHT22;43095;53.302;5.786;2022-10-16T07:49:03;13.50;99.90
57242;DHT22;43095;53.302;5.786;2022-10-16T07:51:31;13.50;99.90
57242;DHT22;43095;53.302;5.786;2022-10-16T07:53:58;13.40;99.90
57242;DHT22;43095;53.302;5.786;2022-10-16T07:56:26;13.40;99.90
57242;DHT22;43095;53.302;5.786;2022-10-16T07:59:06;13.50;99.90
57242;DHT22;43095;53.302;5.786;2022-10-16T08:01:34;13.50;99.90
57242;DHT22;43095;53.302;5.786;2022-10-16T08:04:06;13.50;99.90
57242;DHT22;43095;53.302;5.786;2022-10-16T08:06:39;13.50;99.90
57242;DHT22;43095;53.302;5.786;2022-10-16T08:09:08;13.60;99.90
57242;DHT22;43095;53.302;5.786;2022-10-16T08:11:35;13.60;99.90
57242;DHT22;43095;53.302;5.786;2022-10-16T08:14:02;13.70;99.90
57242;DHT22;43095;53.302;5.786;2022-10-16T08:16:30;13.80;99.90
57242;DHT22;43095;53.302;5.786;2022-10-16T08:18:58;13.90;99.90
57242;DHT22;43095;53.302;5.786;2022-10-16T08:21:25;13.90;99.90
57242;DHT22;43095;53.302;5.786;2022-10-16T08:23:53;13.90;99.90
57242;DHT22;43095;53.302;5.786;2022-10-16T08:26:25;13.70;99.90
57242;DHT22;43095;53.302;5.786;2022-10-16T08:28:54;13.90;99.90
57242;DHT22;43095;53.302;5.786;2022-10-16T08:31:28;13.30;99.90
57242;DHT22;43095;53.302;5.786;2022-10-16T08:33:55;14.10;99.90
57242;DHT22;43095;53.302;5.786;2022-10-16T08:36:22;14.30;99.90
57242;DHT22;43095;53.302;5.786;2022-10-16T08:38:50;14.40;99.90
57242;DHT22;43095;53.302;5.786;2022-10-16T08:46:44;14.60;99.90
57242;DHT22;43095;53.302;5.786;2022-10-16T08:49:16;14.60;99.90
57242;DHT22;43095;53.302;5.786;2022-10-16T08:51:44;14.70;99.90
57242;DHT22;43095;53.302;5.786;2022-10-16T08:54:22;14.70;99.90
57242;DHT22;43095;53.302;5.786;2022-10-16T08:56:56;14.70;99.90
57242;DHT22;43095;53.302;5.786;2022-10-16T08:59:35;14.80;99.90
57242;DHT22;43095;53.302;5.786;2022-10-16T09:02:02;14.90;99.90
57242;DHT22;43095;53.302;5.786;2022-10-16T09:13:10;15.20;99.90
57242;DHT22;43095;53.302;5.786;2022-10-16T09:15:51;15.20;99.90
57242;DHT22;43095;53.302;5.786;2022-10-16T09:18:32;15.20;99.90
57242;DHT22;43095;53.302;5.786;2022-10-16T09:21:18;15.30;99.90
57242;DHT22;43095;53.302;5.786;2022-10-16T09:23:47;15.40;99.90
57242;DHT22;43095;53.302;5.786;2022-10-16T09:26:16;15.40;99.90
57242;DHT22;43095;53.302;5.786;2022-10-16T09:28:46;15.50;99.90
57242;DHT22;43095;53.302;5.786;2022-10-16T09:31:19;15.60;99.90
57242;DHT22;43095;53.302;5.786;2022-10-16T09:33:57;15.60;99.90
57242;DHT22;43095;53.302;5.786;2022-10-16T09:36:26;15.70;99.90
57242;DHT22;43095;53.302;5.786;2022-10-16T09:39:07;15.80;99.90
57242;DHT22;43095;53.302;5.786;2022-10-16T09:41:42;15.90;99.90
57242;DHT22;43095;53.302;5.786;2022-10-16T09:44:24;15.90;99.90
57242;DHT22;43095;53.302;5.786;2022-10-16T09:47:26;15.90;99.90
57242;DHT22;43095;53.302;5.786;2022-10-16T09:50:02;15.80;99.90
57242;DHT22;43095;53.302;5.786;2022-10-16T09:52:33;15.70;99.90
57242;DHT22;43095;53.302;5.786;2022-10-16T09:55:13;15.60;99.90
57242;DHT22;43095;53.302;5.786;2022-10-16T09:57:53;15.60;99.90
57242;DHT22;43095;53.302;5.786;2022-10-16T10:00:23;15.60;99.90
57242;DHT22;43095;53.302;5.786;2022-10-16T10:02:51;15.70;99.90
57242;DHT22;43095;53.302;5.786;2022-10-16T10:05:21;15.70;99.90
57242;DHT22;43095;53.302;5.786;2022-10-16T10:08:03;15.80;99.90
57242;DHT22;43095;53.302;5.786;2022-10-16T10:10:42;15.90;99.90
57242;DHT22;43095;53.302;5.786;2022-10-16T10:13:27;16.00;99.90
57242;DHT22;43095;53.302;5.786;2022-10-16T10:15:55;16.00;99.90
57242;DHT22;43095;53.302;5.786;2022-10-16T10:18:22;16.00;99.90
57242;DHT22;43095;53.302;5.786;2022-10-16T10:20:59;16.10;99.90
57242;DHT22;43095;53.302;5.786;2022-10-16T10:23:28;16.10;99.90
57242;DHT22;43095;53.302;5.786;2022-10-16T10:26:18;16.20;99.90
57242;DHT22;43095;53.302;5.786;2022-10-16T10:37:42;16.40;99.90
57242;DHT22;43095;53.302;5.786;2022-10-16T10:40:27;16.60;99.90
57242;DHT22;43095;53.302;5.786;2022-10-16T10:43:12;16.50;99.90
57242;DHT22;43095;53.302;5.786;2022-10-16T10:45:44;16.60;99.90
57242;DHT22;43095;53.302;5.786;2022-10-16T10:51:12;16.70;99.90
57242;DHT22;43095;53.302;5.786;2022-10-16T10:56:58;16.80;99.90
57242;DHT22;43095;53.302;5.786;2022-10-16T11:02:31;16.80;99.90
57242;DHT22;43095;53.302;5.786;2022-10-16T11:08:13;16.90;99.90
57242;DHT22;43095;53.302;5.786;2022-10-16T11:13:45;16.70;99.90
57242;DHT22;43095;53.302;5.786;2022-10-16T11:16:24;16.90;99.90
57242;DHT22;43095;53.302;5.786;2022-10-16T11:19:20;16.70;99.90
57242;DHT22;43095;53.302;5.786;2022-10-16T11:27:52;16.70;99.90
57242;DHT22;43095;53.302;5.786;2022-10-16T11:30:25;16.70;99.90
57242;DHT22;43095;53.302;5.786;2022-10-16T11:41:26;16.90;99.90
57242;DHT22;43095;53.302;5.786;2022-10-16T11:44:02;16.70;99.90
57242;DHT22;43095;53.302;5.786;2022-10-16T11:46:32;15.90;99.90
57242;DHT22;43095;53.302;5.786;2022-10-16T11:49:25;17.10;99.90
57242;DHT22;43095;53.302;5.786;2022-10-16T11:57:25;17.10;99.90
57242;DHT22;43095;53.302;5.786;2022-10-16T12:00:27;17.00;99.90
57242;DHT22;43095;53.302;5.786;2022-10-16T12:08:45;17.50;99.90
57242;DHT22;43095;53.302;5.786;2022-10-16T12:11:43;17.40;99.90
57242;DHT22;43095;53.302;5.786;2022-10-16T12:16:59;17.70;99.90
57242;DHT22;43095;53.302;5.786;2022-10-16T12:19:28;17.70;99.90
57242;DHT22;43095;53.302;5.786;2022-10-16T12:22:00;17.50;99.90
57242;DHT22;43095;53.302;5.786;2022-10-16T12:24:38;17.90;99.10
57242;DHT22;43095;53.302;5.786;2022-10-16T12:27:28;17.80;99.90
57242;DHT22;43095;53.302;5.786;2022-10-16T12:30:00;17.90;95.20
57242;DHT22;43095;53.302;5.786;2022-10-16T12:32:37;17.70;97.00
57242;DHT22;43095;53.302;5.786;2022-10-16T12:35:20;17.90;97.90
57242;DHT22;43095;53.302;5.786;2022-10-16T12:37:48;18.10;96.90
57242;DHT22;43095;53.302;5.786;2022-10-16T12:40:30;18.40;98.70
57242;DHT22;43095;53.302;5.786;2022-10-16T12:46:04;18.40;93.50
57242;DHT22;43095;53.302;5.786;2022-10-16T12:48:34;18.20;91.30
57242;DHT22;43095;53.302;5.786;2022-10-16T12:51:35;17.90;87.60
57242;DHT22;43095;53.302;5.786;2022-10-16T12:54:14;17.80;93.30
57242;DHT22;43095;53.302;5.786;2022-10-16T13:05:08;18.80;93.50
57242;DHT22;43095;53.302;5.786;2022-10-16T13:17:12;18.30;90.80
57242;DHT22;43095;53.302;5.786;2022-10-16T13:19:28;18.50;87.90
57242;DHT22;43095;53.302;5.786;2022-10-16T13:22:32;18.50;90.70
57242;DHT22;43095;53.302;5.786;2022-10-16T13:25:26;18.70;90.60
57242;DHT22;43095;53.302;5.786;2022-10-16T13:30:34;19.20;85.00
57242;DHT22;43095;53.302;5.786;2022-10-16T13:36:03;18.90;87.10
57242;DHT22;43095;53.302;5.786;2022-10-16T13:38:35;18.60;87.20
57242;DHT22;43095;53.302;5.786;2022-10-16T13:41:17;18.40;88.50
57242;DHT22;43095;53.302;5.786;2022-10-16T13:43:51;18.80;90.60
57242;DHT22;43095;53.302;5.786;2022-10-16T13:46:25;19.10;84.90
57242;DHT22;43095;53.302;5.786;2022-10-16T13:49:05;19.10;87.40
57242;DHT22;43095;53.302;5.786;2022-10-16T13:51:34;19.40;83.00
57242;DHT22;43095;53.302;5.786;2022-10-16T13:54:03;19.80;84.80
57242;DHT22;43095;53.302;5.786;2022-10-16T13:56:32;19.50;77.30
57242;DHT22;43095;53.302;5.786;2022-10-16T13:59:05;19.40;78.20
57242;DHT22;43095;53.302;5.786;2022-10-16T14:01:43;19.50;78.00
57242;DHT22;43095;53.302;5.786;2022-10-16T14:04:14;19.10;76.20
57242;DHT22;43095;53.302;5.786;2022-10-16T14:06:52;19.20;79.40
57242;DHT22;43095;53.302;5.786;2022-10-16T14:09:31;19.40;79.50
57242;DHT22;43095;53.302;5.786;2022-10-16T14:12:09;19.20;78.10
57242;DHT22;43095;53.302;5.786;2022-10-16T14:14:48;19.50;79.80
57242;DHT22;43095;53.302;5.786;2022-10-16T14:17:37;19.20;81.50
57242;DHT22;43095;53.302;5.786;2022-10-16T14:20:14;19.70;80.10
57242;DHT22;43095;53.302;5.786;2022-10-16T14:22:45;19.60;77.80
57242;DHT22;43095;53.302;5.786;2022-10-16T14:25:21;19.70;78.00
57242;DHT22;43095;53.302;5.786;2022-10-16T14:30:36;19.70;77.30
57242;DHT22;43095;53.302;5.786;2022-10-16T14:36:17;18.90;84.90
57242;DHT22;43095;53.302;5.786;2022-10-16T14:39:00;19.10;87.00
57242;DHT22;43095;53.302;5.786;2022-10-16T14:41:31;18.70;85.00
57242;DHT22;43095;53.302;5.786;2022-10-16T14:44:04;18.90;88.60
57242;DHT22;43095;53.302;5.786;2022-10-16T14:46:43;18.60;90.10
57242;DHT22;43095;53.302;5.786;2022-10-16T14:49:29;18.50;91.10
57242;DHT22;43095;53.302;5.786;2022-10-16T14:51:59;18.10;92.90
57242;DHT22;43095;53.302;5.786;2022-10-16T14:54:26;17.80;94.40
57242;DHT22;43095;53.302;5.786;2022-10-16T14:56:56;17.50;97.20
57242;DHT22;43095;53.302;5.786;2022-10-16T14:59:36;17.20;99.90
57242;DHT22;43095;53.302;5.786;2022-10-16T15:02:33;17.10;99.90
57242;DHT22;43095;53.302;5.786;2022-10-16T15:05:24;16.80;99.90
57242;DHT22;43095;53.302;5.786;2022-10-16T15:07:54;16.90;99.90
57242;DHT22;43095;53.302;5.786;2022-10-16T15:10:28;16.60;99.90
57242;DHT22;43095;53.302;5.786;2022-10-16T15:13:12;16.30;99.90
57242;DHT22;43095;53.302;5.786;2022-10-16T15:15:45;16.30;99.90
57242;DHT22;43095;53.302;5.786;2022-10-16T15:18:14;16.20;99.90
57242;DHT22;43095;53.302;5.786;2022-10-16T15:20:49;16.20;99.90
57242;DHT22;43095;53.302;5.786;2022-10-16T15:23:22;16.00;99.90
57242;DHT22;43095;53.302;5.786;2022-10-16T15:25:54;16.00;99.90
57242;DHT22;43095;53.302;5.786;2022-10-16T15:28:22;15.90;99.90
57242;DHT22;43095;53.302;5.786;2022-10-16T15:30:53;15.80;99.90
57242;DHT22;43095;53.302;5.786;2022-10-16T15:33:23;15.80;99.90
57242;DHT22;43095;53.302;5.786;2022-10-16T15:35:53;15.80;99.90
57242;DHT22;43095;53.302;5.786;2022-10-16T15:38:24;15.70;99.90
57242;DHT22;43095;53.302;5.786;2022-10-16T15:40:53;15.70;99.90
57242;DHT22;43095;53.302;5.786;2022-10-16T15:43:20;15.60;99.90
57242;DHT22;43095;53.302;5.786;2022-10-16T15:45:59;15.60;99.90
57242;DHT22;43095;53.302;5.786;2022-10-16T15:48:28;15.60;99.90
57242;DHT22;43095;53.302;5.786;2022-10-16T15:50:56;15.50;99.90
57242;DHT22;43095;53.302;5.786;2022-10-16T15:53:24;15.50;99.90
57242;DHT22;43095;53.302;5.786;2022-10-16T15:55:51;15.50;99.90
57242;DHT22;43095;53.302;5.786;2022-10-16T15:58:19;15.50;99.90
57242;DHT22;43095;53.302;5.786;2022-10-16T16:00:55;15.40;99.90
57242;DHT22;43095;53.302;5.786;2022-10-16T16:03:23;15.40;99.90
57242;DHT22;43095;53.302;5.786;2022-10-16T16:05:51;15.40;99.90
57242;DHT22;43095;53.302;5.786;2022-10-16T16:08:18;15.30;99.90
57242;DHT22;43095;53.302;5.786;2022-10-16T16:11:00;15.30;99.90
57242;DHT22;43095;53.302;5.786;2022-10-16T16:13:36;15.40;99.90
57242;DHT22;43095;53.302;5.786;2022-10-16T16:16:13;15.20;99.90
57242;DHT22;43095;53.302;5.786;2022-10-16T16:18:44;15.10;99.90
57242;DHT22;43095;53.302;5.786;2022-10-16T16:21:12;15.10;99.90
57242;DHT22;43095;53.302;5.786;2022-10-16T16:23:40;15.00;99.90
57242;DHT22;43095;53.302;5.786;2022-10-16T16:26:22;15.00;99.90
57242;DHT22;43095;53.302;5.786;2022-10-16T16:28:54;15.00;99.90
57242;DHT22;43095;53.302;5.786;2022-10-16T16:31:27;14.90;99.90
57242;DHT22;43095;53.302;5.786;2022-10-16T16:33:56;14.80;99.90
57242;DHT22;43095;53.302;5.786;2022-10-16T16:36:24;14.70;99.90
57242;DHT22;43095;53.302;5.786;2022-10-16T16:38:52;14.60;99.90
57242;DHT22;43095;53.302;5.786;2022-10-16T16:41:24;14.70;99.90
57242;DHT22;43095;53.302;5.786;2022-10-16T16:43:53;14.60;99.90
57242;DHT22;43095;53.302;5.786;2022-10-16T16:46:21;14.50;99.90
57242;DHT22;43095;53.302;5.786;2022-10-16T16:48:51;14.50;99.90
57242;DHT22;43095;53.302;5.786;2022-10-16T16:51:20;14.40;99.90
57242;DHT22;43095;53.302;5.786;2022-10-16T16:53:50;14.40;99.90
57242;DHT22;43095;53.302;5.786;2022-10-16T16:56:20;14.30;99.90
57242;DHT22;43095;53.302;5.786;2022-10-16T16:58:49;14.20;99.90
57242;DHT22;43095;53.302;5.786;2022-10-16T17:01:18;14.20;99.90
57242;DHT22;43095;53.302;5.786;2022-10-16T17:03:50;14.20;99.90
57242;DHT22;43095;53.302;5.786;2022-10-16T17:06:23;14.10;99.90
57242;DHT22;43095;53.302;5.786;2022-10-16T17:08:51;14.10;99.90
57242;DHT22;43095;53.302;5.786;2022-10-16T17:11:21;14.10;99.90
57242;DHT22;43095;53.302;5.786;2022-10-16T17:13:50;14.00;99.90
57242;DHT22;43095;53.302;5.786;2022-10-16T17:16:30;14.00;99.90
57242;DHT22;43095;53.302;5.786;2022-10-16T17:19:00;13.90;99.90
57242;DHT22;43095;53.302;5.786;2022-10-16T17:21:28;13.80;99.90
57242;DHT22;43095;53.302;5.786;2022-10-16T17:23:58;13.70;99.90
57242;DHT22;43095;53.302;5.786;2022-10-16T17:26:29;13.80;99.90
57242;DHT22;43095;53.302;5.786;2022-10-16T17:28:58;13.60;99.90
57242;DHT22;43095;53.302;5.786;2022-10-16T17:31:32;13.60;99.90
57242;DHT22;43095;53.302;5.786;2022-10-16T17:34:01;13.90;99.90
57242;DHT22;43095;53.302;5.786;2022-10-16T17:36:34;13.60;99.90
57242;DHT22;43095;53.302;5.786;2022-10-16T17:39:07;13.60;99.90
57242;DHT22;43095;53.302;5.786;2022-10-16T17:41:36;13.60;99.90
57242;DHT22;43095;53.302;5.786;2022-10-16T17:44:04;13.60;99.90
57242;DHT22;43095;53.302;5.786;2022-10-16T17:46:35;13.50;99.90
57242;DHT22;43095;53.302;5.786;2022-10-16T17:49:08;13.30;99.90